Aviation

Port-au-Prince

FTHA31 MTPP 251200
TAF MTPP 251224Z 2512/2612 11017KT 9000 FEW024 SCT250 BECMG 2516/2520 11015G25KT FM260200 09012KT 8000 FEW026 SCT200
=


Cap-Haïtien

FTHA31 MTCH 251200
TAF MTCH 251241Z 2512/2612 VRB02KT 9000 FEW025 BECMG 2518/2522 05012KT TEMPO 2608/2612 VRB02KT
=